Time;durP1;ratioP1;P1;durP2;ratioP2;P2;SDS_P1;SDS_P2;PMS_P1;PMS_P2;Temp;Humidity;BMP_temperature;BMP_pressure;BME280_temperature;BME280_humidity;BME280_pressure;Samples;Min_cycle;Max_cycle;Signal;HPM_P1;HPM_P2
2022/11/11 00:01:03;;;;;;;13.50;9.87;;;;;;;6.94;100.00;153143.34;5019765;28;20450;-76
2022/11/11 00:04:07;;;;;;;14.30;10.67;;;;;;;6.90;100.00;153133.03;5012469;28;20458;-76
2022/11/11 00:07:11;;;;;;;10.90;9.80;;;;;;;6.87;100.00;153125.28;5011459;28;20477;-75
2022/11/11 00:10:16;;;;;;;11.30;9.80;;;;;;;6.85;100.00;153120.13;5027265;28;21371;-75
2022/11/11 00:13:21;;;;;;;14.30;10.67;;;;;;;6.85;100.00;153118.81;5010654;28;20420;-75
2022/11/11 00:25:04;;;;;;;16.23;10.93;;;;;;;6.83;100.00;153114.94;5014809;28;20446;-75
2022/11/11 00:26:42;;;;;;;11.00;9.30;;;;;;;6.67;100.00;153073.66;5032309;28;20422;-75
2022/11/11 00:29:48;;;;;;;10.30;8.47;;;;;;;6.64;100.00;153067.22;5028085;28;20850;-75
2022/11/11 00:32:52;;;;;;;12.07;9.47;;;;;;;6.66;100.00;153071.06;5032063;28;20577;-75
2022/11/11 00:35:56;;;;;;;9.93;8.93;;;;;;;6.65;100.00;153068.47;5035994;28;20994;-75
2022/11/11 00:39:00;;;;;;;11.23;9.20;;;;;;;6.60;100.00;153056.88;5033093;28;20475;-75
2022/11/11 00:42:04;;;;;;;11.37;9.80;;;;;;;6.58;100.00;153050.41;5016383;28;20536;-75
2022/11/11 00:45:11;;;;;;;20.03;9.63;;;;;;;6.57;100.00;153047.81;5021515;28;20436;-75
2022/11/11 00:51:38;;;;;;;8.93;8.03;;;;;;;6.50;100.00;153031.06;5033324;28;20482;-75
2022/11/11 00:54:42;;;;;;;11.27;8.90;;;;;;;6.48;100.00;153025.91;5033485;28;20981;-75
2022/11/11 00:57:46;;;;;;;12.60;9.47;;;;;;;6.46;100.00;153020.72;5015189;28;20621;-75
2022/11/11 01:00:53;;;;;;;14.00;9.43;;;;;;;6.47;100.00;153023.31;5026805;28;20861;-75
2022/11/11 01:03:57;;;;;;;11.83;9.13;;;;;;;6.46;100.00;153019.47;5032844;28;20614;-75
2022/11/11 01:07:02;;;;;;;11.27;9.13;;;;;;;6.45;100.00;153016.88;5026038;28;20478;-74
2022/11/11 01:10:07;;;;;;;10.70;9.30;;;;;;;6.45;100.00;153016.88;5033729;28;20458;-75
2022/11/11 01:13:16;;;;;;;10.70;9.60;;;;;;;6.44;100.00;153014.28;5029353;28;20998;-75
2022/11/11 01:16:23;;;;;;;11.00;9.87;;;;;;;6.42;100.00;153009.13;5032195;28;20493;-75
2022/11/11 01:19:28;;;;;;;14.17;8.80;;;;;;;6.40;100.00;153003.97;5025071;28;20463;-75
2022/11/11 01:22:32;;;;;;;9.87;8.77;;;;;;;6.38;100.00;152998.81;5021492;28;20598;-75
2022/11/11 01:25:37;;;;;;;10.87;8.80;;;;;;;6.35;100.00;152992.38;5034980;28;20411;-75
2022/11/11 01:28:41;;;;;;;20.60;9.50;;;;;;;6.34;100.00;152989.78;5035111;28;20400;-75
2022/11/11 01:31:47;;;;;;;11.10;9.17;;;;;;;6.31;100.00;152982.03;5032714;28;20505;-75
2022/11/11 01:34:51;;;;;;;11.37;9.10;;;;;;;6.28;100.00;152972.97;5034762;28;20443;-75
2022/11/11 01:37:56;;;;;;;10.87;9.00;;;;;;;6.25;100.00;152965.28;5033306;28;20466;-75
2022/11/11 01:41:31;;;;;;;12.43;8.30;;;;;;;6.25;100.00;152965.28;5032350;28;20509;-75
2022/11/11 01:44:43;;;;;;;10.47;8.80;;;;;;;6.32;100.00;152983.31;5035166;28;20754;-75
2022/11/11 01:51:15;;;;;;;9.40;8.40;;;;;;;6.30;100.00;152978.16;5029839;28;20459;-75
2022/11/11 01:54:22;;;;;;;19.83;8.63;;;;;;;6.28;100.00;152972.97;5028412;28;20522;-75
2022/11/11 01:57:32;;;;;;;11.33;8.80;;;;;;;6.24;100.00;152963.97;5014722;28;20494;-75
2022/11/11 02:00:36;;;;;;;8.77;7.87;;;;;;;6.20;100.00;152952.31;5030653;28;20527;-75
2022/11/11 02:05:40;;;;;;;9.70;8.70;;;;;;;6.16;100.00;152942.03;5018220;28;20411;-76
2022/11/11 02:07:09;;;;;;;10.17;8.33;;;;;;;6.10;100.00;152929.13;5026498;28;20610;-75
2022/11/11 02:10:14;;;;;;;12.77;7.97;;;;;;;6.19;100.00;152951.06;5031789;28;20833;-75
2022/11/11 02:16:40;;;;;;;10.17;8.30;;;;;;;6.12;100.00;152932.97;5026524;28;20486;-75
2022/11/11 02:19:48;;;;;;;9.33;8.30;;;;;;;6.10;100.00;152929.13;5013291;28;20479;-75
2022/11/11 02:22:56;;;;;;;9.87;8.10;;;;;;;6.12;100.00;152934.28;5013588;28;20401;-75
2022/11/11 02:26:03;;;;;;;9.87;7.97;;;;;;;6.13;100.00;152936.88;5018210;28;20459;-75
2022/11/11 02:29:10;;;;;;;10.20;7.93;;;;;;;6.14;100.00;152939.44;5022487;28;20434;-75
2022/11/11 02:32:15;;;;;;;8.77;7.07;;;;;;;6.14;100.00;152939.44;5034317;28;20442;-75
2022/11/11 02:35:21;;;;;;;8.43;7.10;;;;;;;6.17;100.00;152944.63;5033314;28;20474;-75
2022/11/11 02:38:26;;;;;;;9.90;7.80;;;;;;;6.17;100.00;152945.88;5033193;28;20463;-75
2022/11/11 02:44:57;;;;;;;14.73;7.90;;;;;;;6.23;100.00;152961.38;5030477;28;20513;-75
2022/11/11 02:48:02;;;;;;;8.67;7.00;;;;;;;6.23;100.00;152961.38;5013946;28;20480;-75
2022/11/11 02:51:07;;;;;;;8.67;6.80;;;;;;;6.22;100.00;152958.81;5021624;28;20450;-76
2022/11/11 02:54:11;;;;;;;9.10;7.03;;;;;;;6.23;100.00;152960.06;5027217;28;20511;-75
2022/11/11 02:57:17;;;;;;;8.00;7.20;;;;;;;6.26;100.00;152969.13;5032308;28;20473;-75
2022/11/11 03:00:21;;;;;;;8.30;6.63;;;;;;;6.17;100.00;152945.88;5030791;28;20493;-75
2022/11/11 03:03:26;;;;;;;10.40;8.00;;;;;;;6.16;100.00;152942.03;5024371;28;20824;-75
2022/11/11 03:06:30;;;;;;;10.70;7.87;;;;;;;6.12;100.00;152932.97;5032354;28;20435;-75
2022/11/11 03:09:35;;;;;;;8.90;7.20;;;;;;;6.11;100.00;152931.72;5031458;28;20448;-75
2022/11/11 03:12:40;;;;;;;8.17;7.17;;;;;;;6.08;100.00;152922.69;5027453;28;20543;-75
2022/11/11 03:15:44;;;;;;;7.73;6.60;;;;;;;6.08;100.00;152923.97;5024399;28;20946;-76
2022/11/11 03:18:48;;;;;;;7.33;6.60;;;;;;;6.03;100.00;152911.09;5018133;28;20880;-76
2022/11/11 03:21:54;;;;;;;9.57;7.97;;;;;;;6.06;100.00;152918.78;5025203;28;20478;-76
2022/11/11 03:28:25;;;;;;;9.07;7.30;;;;;;;6.01;100.00;152905.88;5031008;28;20482;-75
2022/11/11 03:31:29;;;;;;;11.00;7.80;;;;;;;5.95;100.00;152889.16;5027357;28;20458;-76
2022/11/11 03:34:34;;;;;;;8.13;7.13;;;;;;;5.91;100.00;152880.09;5031662;28;20484;-75
2022/11/11 03:40:59;;;;;;;8.83;7.60;;;;;;;5.80;100.00;152851.66;5030261;28;20443;-75
2022/11/11 03:44:05;;;;;;;8.73;7.43;;;;;;;5.69;100.00;152823.34;5031953;28;20511;-75
2022/11/11 03:47:09;;;;;;;9.27;8.03;;;;;;;5.64;100.00;152810.41;5017729;28;20454;-76
2022/11/11 03:50:13;;;;;;;7.90;7.07;;;;;;;5.57;100.00;152792.38;5027205;28;20435;-75
2022/11/11 03:53:19;;;;;;;8.10;7.30;;;;;;;5.52;100.00;152779.47;5021576;28;20431;-75
2022/11/11 03:56:23;;;;;;;7.67;6.97;;;;;;;5.50;100.00;152774.31;5019423;28;20470;-75
2022/11/11 03:59:29;;;;;;;9.30;7.30;;;;;;;5.42;100.00;152753.69;5015572;28;20482;-75
2022/11/11 04:16:07;;;;;;;7.47;6.77;;;;;;;5.26;100.00;152713.75;5064569;28;20541;-76
2022/11/11 04:22:33;;;;;;;10.50;7.17;;;;;;;5.29;100.00;152721.47;5047720;28;20984;-76
2022/11/11 04:25:52;;;;;;;8.30;6.97;;;;;;;5.31;100.00;152725.31;5067392;28;20476;-76
2022/11/11 04:32:42;;;;;;;7.10;6.40;;;;;;;5.38;100.00;152743.34;5055634;28;20499;-76
2022/11/11 04:35:49;;;;;;;7.03;6.13;;;;;;;5.49;100.00;152771.72;5049751;28;20460;-76
2022/11/11 04:42:17;;;;;;;7.90;6.10;;;;;;;5.54;100.00;152784.63;5062098;28;20541;-75
2022/11/11 04:45:27;;;;;;;7.00;5.73;;;;;;;5.53;100.00;152782.06;5075082;28;20435;-76
2022/11/11 04:48:31;;;;;;;7.80;6.57;;;;;;;5.57;100.00;152792.38;5089649;28;20463;-76
2022/11/11 04:58:18;;;;;;;9.07;6.00;;;;;;;5.51;100.00;152776.88;5063734;28;20550;-76
2022/11/11 05:04:41;;;;;;;7.10;6.37;;;;;;;5.47;100.00;152766.59;5067274;28;20457;-76
2022/11/11 05:11:07;;;;;;;10.60;6.70;;;;;;;5.44;100.00;152758.84;5055359;28;20493;-76
2022/11/11 05:27:40;;;;;;;7.60;6.80;;;;;;;5.35;100.00;152735.63;5051235;28;20450;-76
2022/11/11 05:30:45;;;;;;;7.07;6.20;;;;;;;5.31;100.00;152726.63;5054761;28;20552;-76
2022/11/11 05:33:50;;;;;;;7.97;7.17;;;;;;;5.30;100.00;152722.72;5051013;28;20985;-76
2022/11/11 05:36:53;;;;;;;8.13;6.30;;;;;;;5.29;100.00;152721.47;5049462;28;20953;-76
2022/11/11 05:39:57;;;;;;;7.90;6.57;;;;;;;5.26;100.00;152712.44;5035236;28;20786;-76
2022/11/11 05:43:02;;;;;;;6.70;5.63;;;;;;;5.22;100.00;152703.41;5053817;28;20481;-76
2022/11/11 05:46:07;;;;;;;7.30;6.60;;;;;;;5.20;100.00;152696.94;5039932;28;20445;-76
2022/11/11 05:49:17;;;;;;;7.53;6.73;;;;;;;5.25;100.00;152709.84;5033609;28;20482;-76
2022/11/11 05:52:40;;;;;;;8.90;5.60;;;;;;;5.24;100.00;152707.28;5049119;28;20486;-75
2022/11/11 05:55:44;;;;;;;6.40;5.33;;;;;;;5.22;100.00;152702.09;5046075;28;20443;-75
2022/11/11 05:58:48;;;;;;;7.47;5.53;;;;;;;5.19;100.00;152695.66;5040249;28;20438;-75
2022/11/11 06:01:54;;;;;;;10.13;6.23;;;;;;;5.17;100.00;152689.22;5043763;28;20473;-75
2022/11/11 06:04:58;;;;;;;6.67;5.53;;;;;;;5.14;100.00;152682.78;5043001;28;20453;-75
2022/11/11 06:08:03;;;;;;;8.20;6.40;;;;;;;5.11;100.00;152673.78;5048357;28;20497;-75
2022/11/11 06:11:07;;;;;;;6.90;6.00;;;;;;;5.09;100.00;152668.59;5051444;28;20467;-75
2022/11/11 06:14:11;;;;;;;7.93;6.63;;;;;;;5.10;100.00;152671.19;5049212;28;20446;-75
2022/11/11 06:17:17;;;;;;;8.50;5.87;;;;;;;5.12;100.00;152676.31;5052742;28;20446;-75
2022/11/11 06:20:21;;;;;;;7.10;5.90;;;;;;;5.15;100.00;152684.06;5054466;28;20476;-75
2022/11/11 06:23:26;;;;;;;8.53;6.50;;;;;;;5.14;100.00;152681.47;5043633;28;20525;-75
2022/11/11 06:26:31;;;;;;;7.37;6.60;;;;;;;5.10;100.00;152671.19;5035761;28;21001;-77
2022/11/11 06:29:37;;;;;;;7.33;6.20;;;;;;;5.08;100.00;152666.03;5034187;28;20427;-75
2022/11/11 06:32:44;;;;;;;7.63;5.53;;;;;;;5.10;100.00;152671.19;5046447;28;20450;-74
2022/11/11 06:35:48;;;;;;;5.93;5.20;;;;;;;5.11;100.00;152673.78;5038473;28;20524;-75
2022/11/11 06:38:59;;;;;;;7.07;5.70;;;;;;;5.13;100.00;152678.94;5033976;28;20776;-75
2022/11/11 06:42:03;;;;;;;6.97;5.53;;;;;;;5.14;100.00;152681.47;5044153;28;20449;-75
2022/11/11 06:45:13;;;;;;;8.40;5.70;;;;;;;5.12;100.00;152677.63;5034277;28;20434;-75
2022/11/11 06:48:23;;;;;;;7.60;6.07;;;;;;;5.14;100.00;152682.78;5047814;28;20499;-76
2022/11/11 06:51:30;;;;;;;5.87;5.20;;;;;;;5.16;100.00;152686.66;5040816;28;20513;-75
2022/11/11 06:54:37;;;;;;;5.90;5.30;;;;;;;5.18;100.00;152691.81;5033054;28;20442;-75
2022/11/11 06:57:41;;;;;;;8.30;6.60;;;;;;;5.18;100.00;152691.81;5038155;28;20454;-75
2022/11/11 07:00:46;;;;;;;6.50;5.70;;;;;;;5.25;100.00;152711.13;5040638;28;20975;-76
2022/11/11 07:03:51;;;;;;;6.23;5.43;;;;;;;5.28;100.00;152718.88;5036395;28;20454;-75
2022/11/11 07:06:55;;;;;;;10.80;6.40;;;;;;;5.28;100.00;152717.59;5036910;28;20854;-76
2022/11/11 07:10:01;;;;;;;7.80;6.67;;;;;;;5.28;100.00;152717.59;5044391;28;20446;-75
2022/11/11 07:13:05;;;;;;;8.17;6.87;;;;;;;5.30;100.00;152724.03;5056972;28;20438;-75
2022/11/11 07:16:11;;;;;;;9.23;7.80;;;;;;;5.34;100.00;152733.06;5057907;28;21102;-75
2022/11/11 07:19:16;;;;;;;8.63;7.00;;;;;;;5.32;100.00;152727.91;5041967;28;20486;-75
2022/11/11 07:22:20;;;;;;;8.20;7.40;;;;;;;5.37;100.00;152740.81;5051436;28;20810;-75
2022/11/11 07:25:24;;;;;;;10.00;7.73;;;;;;;5.30;100.00;152722.72;5043151;28;20543;-75
2022/11/11 07:28:29;;;;;;;8.80;7.20;;;;;;;5.26;100.00;152712.44;5052626;28;20497;-75
2022/11/11 07:31:33;;;;;;;10.60;8.17;;;;;;;5.22;100.00;152702.09;5052424;28;20514;-76
2022/11/11 07:34:39;;;;;;;8.57;7.77;;;;;;;5.19;100.00;152694.41;5035553;28;20981;-77
2022/11/11 07:37:43;;;;;;;11.10;6.87;;;;;;;5.24;100.00;152707.28;5043886;28;20418;-77
2022/11/11 07:40:47;;;;;;;10.50;7.23;;;;;;;5.26;100.00;152712.44;5035937;28;20501;-77
2022/11/11 07:43:52;;;;;;;8.20;7.23;;;;;;;5.31;100.00;152726.63;5051642;28;20441;-77
2022/11/11 07:46:56;;;;;;;9.03;7.53;;;;;;;5.38;100.00;152743.34;5032890;28;20561;-76
2022/11/11 07:50:02;;;;;;;8.97;8.00;;;;;;;5.48;100.00;152770.44;5033809;28;20515;-77
2022/11/11 07:53:06;;;;;;;10.33;7.50;;;;;;;5.49;100.00;152773.03;5037534;28;20516;-76
2022/11/11 07:56:14;;;;;;;8.27;7.47;;;;;;;5.57;100.00;152792.38;5048854;28;20418;-77
2022/11/11 07:59:18;;;;;;;9.20;7.80;;;;;;;5.65;100.00;152813.00;5034459;28;20489;-77
2022/11/11 08:02:22;;;;;;;9.03;7.30;;;;;;;5.74;100.00;152834.94;5046865;28;20571;-76
2022/11/11 08:05:28;;;;;;;9.03;6.70;;;;;;;5.82;100.00;152856.88;5033190;28;20929;-76
2022/11/11 08:08:32;;;;;;;8.40;7.17;;;;;;;5.92;100.00;152882.69;5049582;28;20498;-76
2022/11/11 08:14:58;;;;;;;7.17;6.00;;;;;;;6.01;100.00;152904.66;5045628;28;20553;-77
2022/11/11 08:18:02;;;;;;;8.13;6.43;;;;;;;6.07;100.00;152921.38;5042597;28;20434;-76
2022/11/11 08:21:08;;;;;;;6.27;5.67;;;;;;;6.11;100.00;152931.72;5036155;28;20966;-76
2022/11/11 08:24:12;;;;;;;9.00;7.27;;;;;;;6.19;100.00;152949.78;5032300;28;20485;-76
2022/11/11 08:27:16;;;;;;;7.27;6.57;;;;;;;6.23;100.00;152960.06;5038095;28;20454;-76
2022/11/11 08:30:20;;;;;;;8.00;7.20;;;;;;;6.29;100.00;152975.56;5041262;28;20451;-75
2022/11/11 08:33:25;;;;;;;8.30;7.50;;;;;;;6.33;100.00;152987.16;5031001;28;20492;-75
2022/11/11 08:36:31;;;;;;;7.80;6.97;;;;;;;6.34;100.00;152988.47;5036178;28;20504;-75
2022/11/11 08:39:35;;;;;;;8.63;7.20;;;;;;;6.39;100.00;153002.66;5047839;28;20481;-75
2022/11/11 08:42:41;;;;;;;8.40;6.50;;;;;;;6.42;100.00;153009.13;5041227;28;20458;-75
2022/11/11 08:45:45;;;;;;;7.93;7.13;;;;;;;6.47;100.00;153022.00;5046611;28;20528;-75
2022/11/11 08:48:49;;;;;;;7.77;6.70;;;;;;;6.44;100.00;153015.56;5043385;28;20485;-74
2022/11/11 08:51:55;;;;;;;7.57;6.27;;;;;;;6.48;100.00;153024.63;5049114;28;20480;-75
2022/11/11 08:54:59;;;;;;;7.00;6.30;;;;;;;6.52;100.00;153034.91;5043343;28;20458;-76
2022/11/11 08:58:06;;;;;;;9.43;6.60;;;;;;;6.52;100.00;153036.22;5043568;28;20450;-76
2022/11/11 09:01:14;;;;;;;8.73;7.17;;;;;;;6.53;100.00;153037.50;5044659;28;20481;-75
2022/11/11 09:04:18;;;;;;;9.17;7.37;;;;;;;6.60;100.00;153055.56;5063459;28;20515;-75
2022/11/11 09:07:23;;;;;;;8.20;7.13;;;;;;;6.66;100.00;153071.06;5053925;28;20603;-75
2022/11/11 09:10:27;;;;;;;9.40;6.80;;;;;;;6.74;100.00;153091.72;5039003;28;20503;-75
2022/11/11 09:13:32;;;;;;;8.10;7.30;;;;;;;6.86;100.00;153122.69;5051038;28;20473;-75
2022/11/11 09:16:36;;;;;;;7.80;7.00;;;;;;;6.96;100.00;153148.53;5045972;28;20464;-76
2022/11/11 09:19:40;;;;;;;9.30;7.10;;;;;;;7.09;100.00;153180.81;5051405;28;20481;-75
2022/11/11 09:22:47;;;;;;;8.27;6.90;;;;;;;7.19;100.00;153206.63;5048585;28;20488;-75
2022/11/11 09:25:51;;;;;;;7.80;6.63;;;;;;;7.33;100.00;153244.03;5049570;28;20489;-76
2022/11/11 09:28:55;;;;;;;11.90;7.30;;;;;;;7.42;100.00;153264.69;5049731;28;20509;-75
2022/11/11 09:32:00;;;;;;;7.13;6.43;;;;;;;7.50;100.00;153285.38;5042963;28;20941;-76
2022/11/11 09:35:05;;;;;;;8.63;6.00;;;;;;;7.57;100.00;153303.47;5045941;28;20503;-75
2022/11/11 09:38:10;;;;;;;9.70;6.57;;;;;;;7.59;100.00;153308.63;5053899;28;20442;-76
2022/11/11 09:41:22;;;;;;;8.30;6.60;;;;;;;7.68;100.00;153333.16;5054147;28;20465;-87
2022/11/11 09:44:44;;;;;;;8.00;6.63;;;;;;;7.77;100.00;153355.13;5052833;28;20450;-87
2022/11/11 09:47:54;;;;;;;7.20;6.43;;;;;;;7.88;100.00;153384.88;5034993;28;20443;-86
2022/11/11 09:50:59;;;;;;;8.23;7.30;;;;;;;7.97;100.00;153406.78;5038907;28;20566;-86
2022/11/11 09:54:07;;;;;;;8.37;6.43;;;;;;;8.01;100.00;153417.16;5037776;28;20454;-86
2022/11/11 09:57:15;;;;;;;7.07;6.20;;;;;;;8.08;100.00;153435.22;5053374;28;20438;-86
2022/11/11 10:00:22;;;;;;;7.90;6.70;;;;;;;8.15;100.00;153453.34;5052781;28;20543;-86
2022/11/11 10:03:29;;;;;;;8.00;6.70;;;;;;;8.24;100.00;153476.59;5049530;28;20465;-86
2022/11/11 10:06:34;;;;;;;8.07;6.80;;;;;;;8.35;100.00;153503.78;5040712;28;20431;-86
2022/11/11 10:09:44;;;;;;;11.77;8.20;;;;;;;8.40;100.00;153518.00;5045321;28;20473;-86
2022/11/11 10:12:54;;;;;;;9.27;7.37;;;;;;;8.50;100.00;153543.84;5042184;28;20451;-86
2022/11/11 10:16:04;;;;;;;8.37;7.33;;;;;;;8.55;100.00;153556.75;5050523;28;20968;-86
2022/11/11 10:19:18;;;;;;;7.73;6.50;;;;;;;8.62;100.00;153572.28;5047592;28;20570;-87
2022/11/11 10:22:23;;;;;;;9.23;6.53;;;;;;;8.68;100.00;153587.81;5033872;28;20957;-87
2022/11/11 10:25:30;;;;;;;8.30;6.20;;;;;;;8.74;100.00;153603.28;5036161;28;20431;-87
2022/11/11 10:28:36;;;;;;;8.60;6.73;;;;;;;8.79;100.00;153616.25;5047005;28;20859;-87
2022/11/11 10:31:41;;;;;;;7.90;6.60;;;;;;;8.90;100.00;153644.66;5048218;28;20443;-86
2022/11/11 10:34:46;;;;;;;12.00;6.00;;;;;;;8.88;100.00;153640.81;5051578;28;20495;-87
2022/11/11 10:37:59;;;;;;;7.30;5.80;;;;;;;8.99;100.00;153667.97;5045096;28;20516;-87
2022/11/11 10:41:12;;;;;;;8.07;5.97;;;;;;;9.07;100.00;153688.66;5041104;28;20435;-87
2022/11/11 10:44:20;;;;;;;6.83;6.23;;;;;;;9.06;100.00;153687.34;5054474;28;20512;-87
2022/11/11 10:47:33;;;;;;;8.43;6.73;;;;;;;9.09;100.00;153693.81;5048761;28;20458;-87
2022/11/11 10:50:39;;;;;;;7.53;6.30;;;;;;;9.23;100.00;153730.03;5052908;28;20473;-86
2022/11/11 10:53:49;;;;;;;8.33;6.50;;;;;;;9.28;100.00;153742.97;5039701;28;20453;-86
2022/11/11 10:56:58;;;;;;;7.13;5.90;;;;;;;9.33;100.00;153755.91;5053376;28;20869;-86
2022/11/11 11:00:06;;;;;;;9.73;5.90;;;;;;;9.39;100.00;153771.44;5046547;28;20442;-86
2022/11/11 11:03:15;;;;;;;8.07;6.33;;;;;;;9.41;100.00;153775.31;5040883;28;20434;-87
2022/11/11 11:06:22;;;;;;;9.50;6.70;;;;;;;9.48;100.00;153794.69;5035710;28;20450;-87
2022/11/11 11:09:30;;;;;;;8.20;5.83;;;;;;;9.53;100.00;153807.63;5038057;28;20482;-87
2022/11/11 11:12:42;;;;;;;7.13;5.80;;;;;;;9.57;100.00;153818.00;5033895;28;20411;-87
2022/11/11 11:15:49;;;;;;;6.43;5.83;;;;;;;9.66;100.00;153841.25;5045721;28;20483;-87
2022/11/11 11:19:16;;;;;;;7.93;5.53;;;;;;;9.68;100.00;153846.47;5038061;28;20459;-87
2022/11/11 11:22:21;;;;;;;6.30;5.60;;;;;;;9.75;100.00;153864.56;5034539;28;20505;-87
2022/11/11 11:25:28;;;;;;;6.60;5.40;;;;;;;9.85;100.00;153887.88;5033086;28;20435;-87
2022/11/11 11:28:34;;;;;;;6.37;5.53;;;;;;;10.01;100.00;153929.25;5041877;28;20495;-87
2022/11/11 11:31:41;;;;;;;5.93;5.33;;;;;;;9.97;100.00;153918.91;5052405;28;20952;-87
2022/11/11 11:34:48;;;;;;;8.73;6.20;;;;;;;9.96;100.00;153917.63;5034491;28;20547;-87
2022/11/11 11:37:53;;;;;;;7.93;5.90;;;;;;;9.95;100.00;153913.75;5045822;28;20438;-87
2022/11/11 11:40:57;;;;;;;9.90;6.23;;;;;;;9.99;100.00;153924.09;5052054;28;20588;-87
2022/11/11 11:44:03;;;;;;;7.60;5.87;;;;;;;10.01;100.00;153929.25;5032562;28;20465;-87
2022/11/11 11:47:18;;;;;;;9.43;6.80;;;;;;;10.01;100.00;153929.25;5044428;28;20439;-87
2022/11/11 11:50:31;;;;;;;8.00;7.17;;;;;;;10.02;100.00;153931.88;5033259;28;20498;-87
2022/11/11 11:53:42;;;;;;;7.10;5.77;;;;;;;10.14;100.00;153963.00;5039551;28;20577;-87
2022/11/11 11:56:48;;;;;;;9.20;7.90;;;;;;;10.10;100.00;153952.56;5046083;28;20446;-87
2022/11/11 12:00:00;;;;;;;9.03;7.73;;;;;;;10.12;100.00;153957.72;5051678;28;20449;-87
2022/11/11 12:03:41;;;;;;;10.97;7.90;;;;;;;10.11;100.00;153956.44;5048990;28;20468;-88
2022/11/11 12:06:52;;;;;;;10.03;7.20;;;;;;;10.24;100.00;153988.88;5035698;28;20948;-86
2022/11/11 12:10:03;;;;;;;9.00;6.80;;;;;;;10.26;100.00;153995.34;5052227;28;20818;-87
2022/11/11 12:13:17;;;;;;;6.80;5.53;;;;;;;10.33;100.00;154012.16;5050179;28;20493;-87
2022/11/11 12:16:27;;;;;;;7.00;5.70;;;;;;;10.39;100.00;154027.69;5032712;28;20477;-87
2022/11/11 12:19:49;;;;;;;6.17;4.97;;;;;;;10.45;100.00;154043.25;5046676;28;20471;-87
2022/11/11 12:23:19;;;;;;;7.33;4.87;;;;;;;10.48;100.00;154051.03;5044056;28;20964;-86
2022/11/11 12:26:29;;;;;;;4.90;4.30;;;;;;;10.65;100.00;154093.72;5032931;28;20443;-87
2022/11/11 12:29:42;;;;;;;5.50;4.60;;;;;;;11.00;100.00;154185.69;5049342;28;20498;-87
2022/11/11 12:33:06;;;;;;;6.20;5.20;;;;;;;11.16;100.00;154224.53;5055201;28;20533;-87
2022/11/11 12:36:14;;;;;;;6.20;5.57;;;;;;;11.16;100.00;154224.53;5054192;28;20418;-86
2022/11/11 12:39:30;;;;;;;7.57;5.27;;;;;;;11.22;100.00;154240.09;5037407;28;21010;-87
2022/11/11 12:42:43;;;;;;;9.13;6.03;;;;;;;11.21;100.00;154237.47;5036323;28;20407;-87
2022/11/11 12:45:50;;;;;;;6.77;6.07;;;;;;;11.25;100.00;154247.88;5036257;28;20504;-87
2022/11/11 12:49:05;;;;;;;9.00;6.80;;;;;;;11.19;100.00;154232.31;5039344;28;20507;-87
2022/11/11 12:52:20;;;;;;;7.97;7.17;;;;;;;11.17;100.00;154227.16;5035774;28;20439;-87
2022/11/11 12:55:30;;;;;;;8.47;7.20;;;;;;;11.23;100.00;154242.66;5035629;28;20427;-87
2022/11/11 12:58:39;;;;;;;8.57;6.60;;;;;;;11.25;100.00;154249.13;5043371;28;20437;-87
2022/11/11 13:01:54;;;;;;;8.60;7.23;;;;;;;11.25;100.00;154247.88;5053561;28;20484;-87
2022/11/11 13:05:08;;;;;;;8.73;7.83;;;;;;;11.20;100.00;154234.94;5035987;28;20470;-87
2022/11/11 13:08:25;;;;;;;9.60;6.83;;;;;;;11.37;100.00;154278.94;5039590;28;21070;-87
2022/11/11 13:11:34;;;;;;;11.03;6.73;;;;;;;11.30;100.00;154260.81;5063394;28;20525;-87
2022/11/11 13:14:54;;;;;;;8.47;7.67;;;;;;;11.27;100.00;154253.03;5043950;28;20422;-87
2022/11/11 13:18:00;;;;;;;13.33;6.77;;;;;;;11.32;100.00;154266.00;5051100;28;20511;-87
2022/11/11 13:21:09;;;;;;;9.73;6.87;;;;;;;11.36;100.00;154276.34;5041977;28;20504;-87
2022/11/11 13:24:15;;;;;;;9.60;7.27;;;;;;;11.44;100.00;154297.06;5055333;28;20449;-86
2022/11/11 13:27:27;;;;;;;7.67;6.80;;;;;;;11.45;100.00;154299.69;5053279;28;20788;-87
2022/11/11 13:30:42;;;;;;;9.20;7.73;;;;;;;11.43;100.00;154295.81;5045928;28;20475;-87
2022/11/11 13:33:49;;;;;;;7.60;6.80;;;;;;;11.51;100.00;154316.53;5034909;28;20439;-86
2022/11/11 13:36:55;;;;;;;7.63;6.83;;;;;;;11.54;100.00;154324.28;5052587;28;20542;-87
2022/11/11 13:40:03;;;;;;;9.70;7.23;;;;;;;11.59;100.00;154335.97;5042202;28;20493;-87
2022/11/11 13:43:16;;;;;;;8.13;6.47;;;;;;;11.70;100.00;154364.53;5037579;28;20489;-87
2022/11/11 13:46:32;;;;;;;6.97;6.27;;;;;;;11.67;100.00;154355.41;5044871;28;20469;-87
2022/11/11 13:49:38;;;;;;;8.70;6.43;;;;;;;11.61;100.00;154341.16;5052015;28;21119;-87
2022/11/11 13:52:53;;;;;;;8.50;6.00;;;;;;;11.57;100.00;154332.06;5041506;28;20829;-87
2022/11/11 13:56:01;;;;;;;7.33;5.80;;;;;;;11.53;100.00;154321.72;5035085;28;20479;-87
2022/11/11 13:59:06;;;;;;;14.60;5.83;;;;;;;11.53;100.00;154320.41;5044345;28;20557;-87
2022/11/11 14:02:26;;;;;;;7.90;5.57;;;;;;;11.51;100.00;154315.25;5039143;28;20505;-87
2022/11/11 14:05:31;;;;;;;8.50;6.20;;;;;;;11.48;100.00;154307.47;5050806;28;20474;-87
2022/11/11 14:08:53;;;;;;;6.60;5.80;;;;;;;11.45;100.00;154299.69;5053651;28;20465;-87
2022/11/11 14:12:22;;;;;;;6.53;5.30;;;;;;;11.43;100.00;154294.50;5053419;28;20965;-87
2022/11/11 14:15:35;;;;;;;7.60;6.40;;;;;;;11.42;100.00;154291.91;5048250;28;20488;-87
2022/11/11 14:18:44;;;;;;;8.00;5.80;;;;;;;11.40;100.00;154286.72;5053328;28;20433;-87
2022/11/11 14:21:50;;;;;;;8.17;6.23;;;;;;;11.37;100.00;154278.94;5043872;28;20439;-87
2022/11/11 14:25:10;;;;;;;5.90;5.30;;;;;;;11.32;100.00;154267.31;5036400;28;20458;-87
2022/11/11 14:28:22;;;;;;;6.13;5.53;;;;;;;11.32;100.00;154266.00;5035295;28;20458;-87
2022/11/11 14:31:51;;;;;;;5.63;5.13;;;;;;;11.55;100.00;154325.59;5043121;28;20491;-86
2022/11/11 14:35:13;;;;;;;6.67;5.97;;;;;;;11.63;100.00;154347.63;5038745;28;20817;-86
2022/11/11 14:38:40;;;;;;;6.90;6.20;;;;;;;11.61;100.00;154342.44;5044992;28;20485;-87
2022/11/11 14:41:48;;;;;;;9.20;7.13;;;;;;;11.61;100.00;154342.44;5045751;28;20492;-86
2022/11/11 14:44:52;;;;;;;8.30;5.70;;;;;;;11.63;100.00;154346.31;5038328;28;20450;-88
2022/11/11 14:47:57;;;;;;;9.97;6.33;;;;;;;11.55;100.00;154325.59;5042020;28;20473;-88
2022/11/11 14:51:00;;;;;;;7.63;5.70;;;;;;;11.48;100.00;154308.75;5047166;28;20542;-88
2022/11/11 14:54:07;;;;;;;7.90;5.90;;;;;;;11.38;100.00;154282.84;5042041;28;20914;-88
2022/11/11 14:57:20;;;;;;;6.03;5.10;;;;;;;11.34;100.00;154271.16;5045465;28;20458;-86
2022/11/11 15:00:26;;;;;;;7.60;5.30;;;;;;;11.27;100.00;154254.34;5046221;28;20445;-86
2022/11/11 15:03:36;;;;;;;6.70;5.57;;;;;;;11.23;100.00;154242.66;5037136;28;21204;-88
2022/11/11 15:06:44;;;;;;;6.53;5.83;;;;;;;11.17;100.00;154228.44;5042914;28;20446;-87
2022/11/11 15:10:17;;;;;;;7.30;6.20;;;;;;;11.08;100.00;154205.13;5036544;28;20482;-88
2022/11/11 15:13:50;;;;;;;7.17;6.27;;;;;;;10.96;100.00;154175.31;5041077;28;20648;-88
2022/11/11 15:17:08;;;;;;;6.53;5.83;;;;;;;10.86;100.00;154149.41;5047341;28;21067;-88
2022/11/11 15:20:36;;;;;;;5.40;4.90;;;;;;;10.83;100.00;154141.63;5039708;28;20474;-88
2022/11/11 15:23:45;;;;;;;7.63;6.93;;;;;;;10.93;100.00;154167.53;5037961;28;20999;-88
2022/11/11 15:26:57;;;;;;;7.23;5.20;;;;;;;10.95;100.00;154172.75;5047327;28;20454;-88
2022/11/11 15:30:10;;;;;;;6.93;5.50;;;;;;;10.94;100.00;154168.81;5046921;28;20482;-88
2022/11/11 15:33:21;;;;;;;5.67;4.93;;;;;;;10.87;100.00;154152.03;5050167;28;20438;-88
2022/11/11 15:36:35;;;;;;;7.47;6.67;;;;;;;10.76;100.00;154122.22;5062042;28;20434;-88
2022/11/11 15:39:41;;;;;;;7.70;6.80;;;;;;;10.65;100.00;154095.03;5056725;28;21006;-88
2022/11/11 15:42:48;;;;;;;12.53;6.70;;;;;;;10.55;100.00;154069.13;5049982;28;20442;-88
2022/11/11 15:45:56;;;;;;;7.30;6.03;;;;;;;10.45;100.00;154043.25;5057845;28;20564;-88
2022/11/11 15:49:00;;;;;;;6.60;6.00;;;;;;;10.36;100.00;154019.94;5048190;28;20500;-88
2022/11/11 15:52:04;;;;;;;7.40;5.90;;;;;;;10.23;100.00;153986.28;5043208;28;20490;-88